sensor_id;sensor_type;location;lat;lon;timestamp;temperature;humidity
16140;DHT22;8175;49.326;12.690;2022-09-29T00:01:31;6.00;99.90
16140;DHT22;8175;49.326;12.690;2022-09-29T00:03:56;6.00;99.90
16140;DHT22;8175;49.326;12.690;2022-09-29T00:06:22;6.00;99.90
16140;DHT22;8175;49.326;12.690;2022-09-29T00:08:48;6.00;99.90
16140;DHT22;8175;49.326;12.690;2022-09-29T00:11:16;6.00;99.90
16140;DHT22;8175;49.326;12.690;2022-09-29T00:13:43;6.00;99.90
16140;DHT22;8175;49.326;12.690;2022-09-29T00:16:09;6.10;99.90
16140;DHT22;8175;49.326;12.690;2022-09-29T00:18:35;6.00;99.90
16140;DHT22;8175;49.326;12.690;2022-09-29T00:21:04;6.10;99.90
16140;DHT22;8175;49.326;12.690;2022-09-29T00:23:31;6.10;99.90
16140;DHT22;8175;49.326;12.690;2022-09-29T00:28:27;6.20;99.90
16140;DHT22;8175;49.326;12.690;2022-09-29T00:30:52;6.20;99.90
16140;DHT22;8175;49.326;12.690;2022-09-29T00:33:18;6.20;99.90
16140;DHT22;8175;49.326;12.690;2022-09-29T00:35:43;6.20;99.90
16140;DHT22;8175;49.326;12.690;2022-09-29T00:38:09;6.20;99.90
16140;DHT22;8175;49.326;12.690;2022-09-29T00:40:35;6.10;99.90
16140;DHT22;8175;49.326;12.690;2022-09-29T00:43:00;6.00;99.90
16140;DHT22;8175;49.326;12.690;2022-09-29T00:45:26;5.90;99.90
16140;DHT22;8175;49.326;12.690;2022-09-29T00:48:11;5.90;99.90
16140;DHT22;8175;49.326;12.690;2022-09-29T00:50:43;5.80;99.90
16140;DHT22;8175;49.326;12.690;2022-09-29T00:53:11;5.80;99.90
16140;DHT22;8175;49.326;12.690;2022-09-29T00:55:54;5.80;99.90
16140;DHT22;8175;49.326;12.690;2022-09-29T01:01:01;5.90;99.90
16140;DHT22;8175;49.326;12.690;2022-09-29T01:03:31;6.00;99.90
16140;DHT22;8175;49.326;12.690;2022-09-29T01:06:07;6.00;99.90
16140;DHT22;8175;49.326;12.690;2022-09-29T01:08:51;6.20;99.90
16140;DHT22;8175;49.326;12.690;2022-09-29T01:11:20;6.30;99.90
16140;DHT22;8175;49.326;12.690;2022-09-29T01:13:46;6.30;99.90
16140;DHT22;8175;49.326;12.690;2022-09-29T01:16:13;6.30;99.90
16140;DHT22;8175;49.326;12.690;2022-09-29T01:18:38;6.40;99.90
16140;DHT22;8175;49.326;12.690;2022-09-29T01:32:08;6.50;99.90
16140;DHT22;8175;49.326;12.690;2022-09-29T01:34:49;6.50;99.90
16140;DHT22;8175;49.326;12.690;2022-09-29T01:42:54;6.90;99.90
16140;DHT22;8175;49.326;12.690;2022-09-29T01:45:29;6.90;99.90
16140;DHT22;8175;49.326;12.690;2022-09-29T01:48:01;7.00;99.90
16140;DHT22;8175;49.326;12.690;2022-09-29T01:50:37;7.00;99.90
16140;DHT22;8175;49.326;12.690;2022-09-29T01:53:10;7.10;99.90
16140;DHT22;8175;49.326;12.690;2022-09-29T01:55:42;7.20;99.90
16140;DHT22;8175;49.326;12.690;2022-09-29T01:58:14;7.20;99.90
16140;DHT22;8175;49.326;12.690;2022-09-29T02:00:47;7.20;99.90
16140;DHT22;8175;49.326;12.690;2022-09-29T02:03:18;7.30;99.90
16140;DHT22;8175;49.326;12.690;2022-09-29T02:06:08;7.30;99.90
16140;DHT22;8175;49.326;12.690;2022-09-29T02:08:48;7.30;99.90
16140;DHT22;8175;49.326;12.690;2022-09-29T02:11:16;7.20;99.90
16140;DHT22;8175;49.326;12.690;2022-09-29T02:13:44;7.20;99.90
16140;DHT22;8175;49.326;12.690;2022-09-29T02:16:15;7.20;99.90
16140;DHT22;8175;49.326;12.690;2022-09-29T02:18:52;7.20;99.90
16140;DHT22;8175;49.326;12.690;2022-09-29T02:21:18;7.20;99.90
16140;DHT22;8175;49.326;12.690;2022-09-29T02:23:44;7.30;99.90
16140;DHT22;8175;49.326;12.690;2022-09-29T02:26:10;7.30;99.90
16140;DHT22;8175;49.326;12.690;2022-09-29T02:28:37;7.30;99.90
16140;DHT22;8175;49.326;12.690;2022-09-29T02:31:03;7.30;99.90
16140;DHT22;8175;49.326;12.690;2022-09-29T02:33:29;7.30;99.90
16140;DHT22;8175;49.326;12.690;2022-09-29T02:39:16;7.20;99.90
16140;DHT22;8175;49.326;12.690;2022-09-29T02:41:57;7.10;99.90
16140;DHT22;8175;49.326;12.690;2022-09-29T02:49:58;7.10;99.90
16140;DHT22;8175;49.326;12.690;2022-09-29T02:58:46;7.10;99.90
16140;DHT22;8175;49.326;12.690;2022-09-29T03:00:52;7.10;99.90
16140;DHT22;8175;49.326;12.690;2022-09-29T03:03:18;7.10;99.90
16140;DHT22;8175;49.326;12.690;2022-09-29T03:05:44;7.10;99.90
16140;DHT22;8175;49.326;12.690;2022-09-29T03:08:09;7.10;99.90
16140;DHT22;8175;49.326;12.690;2022-09-29T03:10:35;7.10;99.90
16140;DHT22;8175;49.326;12.690;2022-09-29T03:13:01;7.10;99.90
16140;DHT22;8175;49.326;12.690;2022-09-29T03:15:26;7.20;99.90
16140;DHT22;8175;49.326;12.690;2022-09-29T03:17:55;7.20;99.90
16140;DHT22;8175;49.326;12.690;2022-09-29T03:20:22;7.20;99.90
16140;DHT22;8175;49.326;12.690;2022-09-29T03:22:47;7.10;99.90
16140;DHT22;8175;49.326;12.690;2022-09-29T03:25:13;7.20;99.90
16140;DHT22;8175;49.326;12.690;2022-09-29T03:27:39;7.20;99.90
16140;DHT22;8175;49.326;12.690;2022-09-29T03:30:06;7.20;99.90
16140;DHT22;8175;49.326;12.690;2022-09-29T03:32:32;7.20;99.90
16140;DHT22;8175;49.326;12.690;2022-09-29T03:34:57;7.20;99.90
16140;DHT22;8175;49.326;12.690;2022-09-29T03:37:23;7.10;99.90
16140;DHT22;8175;49.326;12.690;2022-09-29T03:39:49;7.20;99.90
16140;DHT22;8175;49.326;12.690;2022-09-29T03:42:14;7.20;99.90
16140;DHT22;8175;49.326;12.690;2022-09-29T03:44:40;7.20;99.90
16140;DHT22;8175;49.326;12.690;2022-09-29T03:47:06;7.10;99.90
16140;DHT22;8175;49.326;12.690;2022-09-29T03:49:32;7.10;99.90
16140;DHT22;8175;49.326;12.690;2022-09-29T03:51:57;7.10;99.90
16140;DHT22;8175;49.326;12.690;2022-09-29T03:54:23;7.10;99.90
16140;DHT22;8175;49.326;12.690;2022-09-29T03:56:50;7.10;99.90
16140;DHT22;8175;49.326;12.690;2022-09-29T03:59:16;7.10;99.90
16140;DHT22;8175;49.326;12.690;2022-09-29T04:01:42;7.20;99.90
16140;DHT22;8175;49.326;12.690;2022-09-29T04:04:08;7.10;99.90
16140;DHT22;8175;49.326;12.690;2022-09-29T04:06:35;7.10;99.90
16140;DHT22;8175;49.326;12.690;2022-09-29T04:09:00;7.20;99.90
16140;DHT22;8175;49.326;12.690;2022-09-29T04:11:27;7.10;99.90
16140;DHT22;8175;49.326;12.690;2022-09-29T04:13:53;7.00;99.90
16140;DHT22;8175;49.326;12.690;2022-09-29T04:16:19;7.10;99.90
16140;DHT22;8175;49.326;12.690;2022-09-29T04:18:44;7.00;99.90
16140;DHT22;8175;49.326;12.690;2022-09-29T04:21:11;7.10;99.90
16140;DHT22;8175;49.326;12.690;2022-09-29T04:23:36;7.00;99.90
16140;DHT22;8175;49.326;12.690;2022-09-29T04:26:03;7.00;99.90
16140;DHT22;8175;49.326;12.690;2022-09-29T04:28:33;7.00;99.90
16140;DHT22;8175;49.326;12.690;2022-09-29T04:30:59;7.00;99.90
16140;DHT22;8175;49.326;12.690;2022-09-29T04:33:25;6.90;99.90
16140;DHT22;8175;49.326;12.690;2022-09-29T04:35:51;6.90;99.90
16140;DHT22;8175;49.326;12.690;2022-09-29T04:38:16;6.90;99.90
16140;DHT22;8175;49.326;12.690;2022-09-29T04:40:42;6.90;99.90
16140;DHT22;8175;49.326;12.690;2022-09-29T04:43:08;6.90;99.90
16140;DHT22;8175;49.326;12.690;2022-09-29T04:45:34;6.80;99.90
16140;DHT22;8175;49.326;12.690;2022-09-29T04:47:59;6.80;99.90
16140;DHT22;8175;49.326;12.690;2022-09-29T04:50:25;6.80;99.90
16140;DHT22;8175;49.326;12.690;2022-09-29T04:52:51;6.80;99.90
16140;DHT22;8175;49.326;12.690;2022-09-29T04:55:16;6.80;99.90
16140;DHT22;8175;49.326;12.690;2022-09-29T04:57:43;6.80;99.90
16140;DHT22;8175;49.326;12.690;2022-09-29T05:00:09;6.80;99.90
16140;DHT22;8175;49.326;12.690;2022-09-29T05:02:36;6.80;99.90
16140;DHT22;8175;49.326;12.690;2022-09-29T05:05:02;6.80;99.90
16140;DHT22;8175;49.326;12.690;2022-09-29T05:07:28;6.80;99.90
16140;DHT22;8175;49.326;12.690;2022-09-29T05:09:54;6.80;99.90
16140;DHT22;8175;49.326;12.690;2022-09-29T05:12:19;6.80;99.90
16140;DHT22;8175;49.326;12.690;2022-09-29T05:14:46;6.70;99.90
16140;DHT22;8175;49.326;12.690;2022-09-29T05:17:12;6.70;99.90
16140;DHT22;8175;49.326;12.690;2022-09-29T05:19:38;6.70;99.90
16140;DHT22;8175;49.326;12.690;2022-09-29T05:22:04;6.60;99.90
16140;DHT22;8175;49.326;12.690;2022-09-29T05:24:30;6.60;99.90
16140;DHT22;8175;49.326;12.690;2022-09-29T05:26:55;6.60;99.90
16140;DHT22;8175;49.326;12.690;2022-09-29T05:29:21;6.60;99.90
16140;DHT22;8175;49.326;12.690;2022-09-29T05:31:48;6.60;99.90
16140;DHT22;8175;49.326;12.690;2022-09-29T05:34:13;6.60;99.90
16140;DHT22;8175;49.326;12.690;2022-09-29T05:36:39;6.60;99.90
16140;DHT22;8175;49.326;12.690;2022-09-29T05:39:05;6.70;99.90
16140;DHT22;8175;49.326;12.690;2022-09-29T05:41:30;6.80;99.90
16140;DHT22;8175;49.326;12.690;2022-09-29T05:43:56;6.80;99.90
16140;DHT22;8175;49.326;12.690;2022-09-29T05:46:23;6.80;99.90
16140;DHT22;8175;49.326;12.690;2022-09-29T05:48:49;6.90;99.90
16140;DHT22;8175;49.326;12.690;2022-09-29T05:51:17;6.90;99.90
16140;DHT22;8175;49.326;12.690;2022-09-29T05:53:44;6.90;99.90
16140;DHT22;8175;49.326;12.690;2022-09-29T05:56:21;7.00;99.90
16140;DHT22;8175;49.326;12.690;2022-09-29T05:58:47;7.10;99.90
16140;DHT22;8175;49.326;12.690;2022-09-29T06:01:16;7.20;99.90
16140;DHT22;8175;49.326;12.690;2022-09-29T06:03:42;7.30;99.90
16140;DHT22;8175;49.326;12.690;2022-09-29T06:06:13;7.40;99.90
16140;DHT22;8175;49.326;12.690;2022-09-29T06:08:40;7.40;99.90
16140;DHT22;8175;49.326;12.690;2022-09-29T06:11:18;7.50;99.90
16140;DHT22;8175;49.326;12.690;2022-09-29T06:13:49;7.50;99.90
16140;DHT22;8175;49.326;12.690;2022-09-29T06:16:16;7.50;99.90
16140;DHT22;8175;49.326;12.690;2022-09-29T06:18:42;7.50;99.90
16140;DHT22;8175;49.326;12.690;2022-09-29T06:21:13;7.40;99.90
16140;DHT22;8175;49.326;12.690;2022-09-29T06:23:39;7.30;99.90
16140;DHT22;8175;49.326;12.690;2022-09-29T06:26:09;7.20;99.90
16140;DHT22;8175;49.326;12.690;2022-09-29T06:28:35;7.10;99.90
16140;DHT22;8175;49.326;12.690;2022-09-29T06:31:07;7.10;99.90
16140;DHT22;8175;49.326;12.690;2022-09-29T06:33:34;7.00;99.90
16140;DHT22;8175;49.326;12.690;2022-09-29T06:36:03;7.10;99.90
16140;DHT22;8175;49.326;12.690;2022-09-29T06:38:49;7.10;99.90
16140;DHT22;8175;49.326;12.690;2022-09-29T06:41:15;7.20;99.90
16140;DHT22;8175;49.326;12.690;2022-09-29T06:43:41;7.20;99.90
16140;DHT22;8175;49.326;12.690;2022-09-29T06:46:06;7.30;99.90
16140;DHT22;8175;49.326;12.690;2022-09-29T06:48:32;7.50;99.90
16140;DHT22;8175;49.326;12.690;2022-09-29T06:50:58;7.60;99.90
16140;DHT22;8175;49.326;12.690;2022-09-29T06:53:25;7.60;99.90
16140;DHT22;8175;49.326;12.690;2022-09-29T06:55:54;7.70;99.90
16140;DHT22;8175;49.326;12.690;2022-09-29T06:58:25;7.70;99.90
16140;DHT22;8175;49.326;12.690;2022-09-29T07:00:51;7.90;99.90
16140;DHT22;8175;49.326;12.690;2022-09-29T07:03:16;8.20;99.90
16140;DHT22;8175;49.326;12.690;2022-09-29T07:05:42;8.60;99.90
16140;DHT22;8175;49.326;12.690;2022-09-29T07:08:08;9.10;99.90
16140;DHT22;8175;49.326;12.690;2022-09-29T07:10:34;9.30;99.90
16140;DHT22;8175;49.326;12.690;2022-09-29T07:12:59;9.80;99.90
16140;DHT22;8175;49.326;12.690;2022-09-29T07:15:25;10.00;99.90
16140;DHT22;8175;49.326;12.690;2022-09-29T07:17:57;10.10;99.90
16140;DHT22;8175;49.326;12.690;2022-09-29T07:20:25;10.20;99.90
16140;DHT22;8175;49.326;12.690;2022-09-29T07:22:51;10.20;99.90
16140;DHT22;8175;49.326;12.690;2022-09-29T07:25:16;10.30;99.90
16140;DHT22;8175;49.326;12.690;2022-09-29T07:27:42;10.80;99.90
16140;DHT22;8175;49.326;12.690;2022-09-29T07:30:08;11.70;99.90
16140;DHT22;8175;49.326;12.690;2022-09-29T07:32:34;11.70;99.90
16140;DHT22;8175;49.326;12.690;2022-09-29T07:35:00;10.90;99.90
16140;DHT22;8175;49.326;12.690;2022-09-29T07:37:26;10.30;99.90
16140;DHT22;8175;49.326;12.690;2022-09-29T07:39:52;9.70;99.90
16140;DHT22;8175;49.326;12.690;2022-09-29T07:42:18;9.30;99.90
16140;DHT22;8175;49.326;12.690;2022-09-29T07:44:45;9.10;99.90
16140;DHT22;8175;49.326;12.690;2022-09-29T07:47:12;9.10;99.90
16140;DHT22;8175;49.326;12.690;2022-09-29T07:49:39;9.50;99.90
16140;DHT22;8175;49.326;12.690;2022-09-29T07:52:04;10.10;99.90
16140;DHT22;8175;49.326;12.690;2022-09-29T07:54:30;10.40;99.90
16140;DHT22;8175;49.326;12.690;2022-09-29T07:56:56;10.30;99.90
16140;DHT22;8175;49.326;12.690;2022-09-29T07:59:22;9.90;99.90
16140;DHT22;8175;49.326;12.690;2022-09-29T08:01:47;9.80;99.90
16140;DHT22;8175;49.326;12.690;2022-09-29T08:04:13;10.00;99.90
16140;DHT22;8175;49.326;12.690;2022-09-29T08:06:39;10.20;99.90
16140;DHT22;8175;49.326;12.690;2022-09-29T08:09:06;10.50;99.90
16140;DHT22;8175;49.326;12.690;2022-09-29T08:11:36;10.70;99.90
16140;DHT22;8175;49.326;12.690;2022-09-29T08:14:02;10.90;99.90
16140;DHT22;8175;49.326;12.690;2022-09-29T08:16:27;10.80;99.90
16140;DHT22;8175;49.326;12.690;2022-09-29T08:18:53;10.60;99.90
16140;DHT22;8175;49.326;12.690;2022-09-29T08:21:19;10.30;99.90
16140;DHT22;8175;49.326;12.690;2022-09-29T08:23:44;10.20;99.90
16140;DHT22;8175;49.326;12.690;2022-09-29T08:26:15;10.40;99.90
16140;DHT22;8175;49.326;12.690;2022-09-29T08:28:42;10.70;99.90
16140;DHT22;8175;49.326;12.690;2022-09-29T08:31:11;10.90;99.90
16140;DHT22;8175;49.326;12.690;2022-09-29T08:33:38;11.30;99.90
16140;DHT22;8175;49.326;12.690;2022-09-29T08:36:05;11.70;99.90
16140;DHT22;8175;49.326;12.690;2022-09-29T08:38:43;12.00;99.90
16140;DHT22;8175;49.326;12.690;2022-09-29T08:41:39;12.20;99.90
16140;DHT22;8175;49.326;12.690;2022-09-29T08:47:03;11.60;99.90
16140;DHT22;8175;49.326;12.690;2022-09-29T08:49:40;11.50;99.90
16140;DHT22;8175;49.326;12.690;2022-09-29T08:52:12;11.30;99.90
16140;DHT22;8175;49.326;12.690;2022-09-29T08:54:41;11.30;99.90
16140;DHT22;8175;49.326;12.690;2022-09-29T08:57:13;11.50;99.90
16140;DHT22;8175;49.326;12.690;2022-09-29T08:59:51;11.60;99.90
16140;DHT22;8175;49.326;12.690;2022-09-29T09:13:28;12.20;99.90
16140;DHT22;8175;49.326;12.690;2022-09-29T09:16:19;12.20;99.90
16140;DHT22;8175;49.326;12.690;2022-09-29T09:27:38;12.10;99.90
16140;DHT22;8175;49.326;12.690;2022-09-29T09:30:17;12.40;99.90
16140;DHT22;8175;49.326;12.690;2022-09-29T09:33:00;12.40;99.90
16140;DHT22;8175;49.326;12.690;2022-09-29T09:35:29;12.20;99.90
16140;DHT22;8175;49.326;12.690;2022-09-29T09:38:00;12.20;99.90
16140;DHT22;8175;49.326;12.690;2022-09-29T09:40:39;12.20;99.90
16140;DHT22;8175;49.326;12.690;2022-09-29T09:43:26;12.60;99.90
16140;DHT22;8175;49.326;12.690;2022-09-29T09:46:07;12.90;99.90
16140;DHT22;8175;49.326;12.690;2022-09-29T09:48:41;13.90;99.90
16140;DHT22;8175;49.326;12.690;2022-09-29T09:53:59;14.90;99.90
16140;DHT22;8175;49.326;12.690;2022-09-29T10:01:58;14.70;99.90
16140;DHT22;8175;49.326;12.690;2022-09-29T10:04:24;14.40;99.90
16140;DHT22;8175;49.326;12.690;2022-09-29T10:06:51;14.20;99.90
16140;DHT22;8175;49.326;12.690;2022-09-29T10:09:17;14.00;99.90
16140;DHT22;8175;49.326;12.690;2022-09-29T10:11:44;14.10;99.90
16140;DHT22;8175;49.326;12.690;2022-09-29T10:14:25;13.90;99.90
16140;DHT22;8175;49.326;12.690;2022-09-29T10:17:02;13.90;99.90
16140;DHT22;8175;49.326;12.690;2022-09-29T10:22:27;14.20;99.90
16140;DHT22;8175;49.326;12.690;2022-09-29T10:27:41;14.80;99.90
16140;DHT22;8175;49.326;12.690;2022-09-29T10:30:32;15.20;99.90
16140;DHT22;8175;49.326;12.690;2022-09-29T10:33:00;15.80;99.90
16140;DHT22;8175;49.326;12.690;2022-09-29T10:35:38;16.30;99.90
16140;DHT22;8175;49.326;12.690;2022-09-29T10:38:15;16.30;99.90
16140;DHT22;8175;49.326;12.690;2022-09-29T10:43:24;15.90;99.90
16140;DHT22;8175;49.326;12.690;2022-09-29T10:45:50;16.50;99.90
16140;DHT22;8175;49.326;12.690;2022-09-29T10:48:18;16.20;99.90
16140;DHT22;8175;49.326;12.690;2022-09-29T10:50:57;16.00;99.90
16140;DHT22;8175;49.326;12.690;2022-09-29T10:53:40;15.70;99.90
16140;DHT22;8175;49.326;12.690;2022-09-29T10:56:16;15.00;99.90
16140;DHT22;8175;49.326;12.690;2022-09-29T10:58:52;14.80;99.90
16140;DHT22;8175;49.326;12.690;2022-09-29T11:01:19;14.80;99.90
16140;DHT22;8175;49.326;12.690;2022-09-29T11:04:01;14.30;99.90
16140;DHT22;8175;49.326;12.690;2022-09-29T11:06:35;14.40;99.90
16140;DHT22;8175;49.326;12.690;2022-09-29T11:09:27;14.40;99.90
16140;DHT22;8175;49.326;12.690;2022-09-29T11:11:56;14.50;99.90
16140;DHT22;8175;49.326;12.690;2022-09-29T11:17:01;15.00;99.90
16140;DHT22;8175;49.326;12.690;2022-09-29T11:19:30;14.70;99.90
16140;DHT22;8175;49.326;12.690;2022-09-29T11:25:07;15.10;99.90
16140;DHT22;8175;49.326;12.690;2022-09-29T11:30:21;15.50;99.90
16140;DHT22;8175;49.326;12.690;2022-09-29T11:38:11;14.90;99.90
16140;DHT22;8175;49.326;12.690;2022-09-29T11:43:45;14.20;99.90
16140;DHT22;8175;49.326;12.690;2022-09-29T11:46:34;14.40;99.90
16140;DHT22;8175;49.326;12.690;2022-09-29T11:49:26;14.30;99.90
16140;DHT22;8175;49.326;12.690;2022-09-29T11:55:30;15.50;99.90
16140;DHT22;8175;49.326;12.690;2022-09-29T11:58:45;17.10;99.90
16140;DHT22;8175;49.326;12.690;2022-09-29T12:00:58;17.30;99.90
16140;DHT22;8175;49.326;12.690;2022-09-29T12:03:51;17.30;99.90
16140;DHT22;8175;49.326;12.690;2022-09-29T12:06:39;17.60;99.90
16140;DHT22;8175;49.326;12.690;2022-09-29T12:17:35;16.60;99.00
16140;DHT22;8175;49.326;12.690;2022-09-29T12:20:07;16.20;99.90
16140;DHT22;8175;49.326;12.690;2022-09-29T12:22:39;15.70;99.90
16140;DHT22;8175;49.326;12.690;2022-09-29T12:25:13;15.50;99.90
16140;DHT22;8175;49.326;12.690;2022-09-29T12:27:41;15.30;99.90
16140;DHT22;8175;49.326;12.690;2022-09-29T12:33:06;15.20;99.90
16140;DHT22;8175;49.326;12.690;2022-09-29T12:35:46;15.70;99.90
16140;DHT22;8175;49.326;12.690;2022-09-29T12:46:19;16.80;99.90
16140;DHT22;8175;49.326;12.690;2022-09-29T12:49:01;16.60;99.90
16140;DHT22;8175;49.326;12.690;2022-09-29T12:51:38;16.50;98.90
16140;DHT22;8175;49.326;12.690;2022-09-29T12:54:23;16.50;99.90
16140;DHT22;8175;49.326;12.690;2022-09-29T12:57:08;16.80;98.80
16140;DHT22;8175;49.326;12.690;2022-09-29T13:19:15;16.00;98.30
16140;DHT22;8175;49.326;12.690;2022-09-29T13:29:56;15.50;96.40
16140;DHT22;8175;49.326;12.690;2022-09-29T13:32:22;15.40;99.90
16140;DHT22;8175;49.326;12.690;2022-09-29T13:34:54;15.80;99.90
16140;DHT22;8175;49.326;12.690;2022-09-29T13:37:23;16.30;99.90
16140;DHT22;8175;49.326;12.690;2022-09-29T13:40:07;16.80;99.30
16140;DHT22;8175;49.326;12.690;2022-09-29T13:42:46;16.80;95.60
16140;DHT22;8175;49.326;12.690;2022-09-29T13:47:55;17.20;94.20
16140;DHT22;8175;49.326;12.690;2022-09-29T14:01:37;15.50;98.10
16140;DHT22;8175;49.326;12.690;2022-09-29T14:07:06;15.40;98.60
16140;DHT22;8175;49.326;12.690;2022-09-29T14:09:39;15.30;98.10
16140;DHT22;8175;49.326;12.690;2022-09-29T14:12:14;15.20;97.80
16140;DHT22;8175;49.326;12.690;2022-09-29T14:14:43;15.00;98.30
16140;DHT22;8175;49.326;12.690;2022-09-29T14:17:18;14.90;99.90
16140;DHT22;8175;49.326;12.690;2022-09-29T14:27:59;14.30;99.90
16140;DHT22;8175;49.326;12.690;2022-09-29T14:33:23;13.90;99.90
16140;DHT22;8175;49.326;12.690;2022-09-29T14:38:27;13.40;99.90
16140;DHT22;8175;49.326;12.690;2022-09-29T15:01:26;12.40;99.90
16140;DHT22;8175;49.326;12.690;2022-09-29T15:04:11;12.30;99.90
16140;DHT22;8175;49.326;12.690;2022-09-29T15:06:49;12.20;99.90
16140;DHT22;8175;49.326;12.690;2022-09-29T15:11:47;12.10;99.90
16140;DHT22;8175;49.326;12.690;2022-09-29T15:25:43;11.80;99.90
16140;DHT22;8175;49.326;12.690;2022-09-29T15:31:01;11.50;99.90
16140;DHT22;8175;49.326;12.690;2022-09-29T15:33:30;11.40;99.90
16140;DHT22;8175;49.326;12.690;2022-09-29T15:35:58;11.30;99.90
16140;DHT22;8175;49.326;12.690;2022-09-29T15:38:28;11.30;99.90
16140;DHT22;8175;49.326;12.690;2022-09-29T15:41:00;11.20;99.90
16140;DHT22;8175;49.326;12.690;2022-09-29T15:43:38;11.10;99.90
16140;DHT22;8175;49.326;12.690;2022-09-29T15:51:30;10.70;99.90
16140;DHT22;8175;49.326;12.690;2022-09-29T15:53:56;10.60;99.90
16140;DHT22;8175;49.326;12.690;2022-09-29T15:56:24;10.50;99.90
16140;DHT22;8175;49.326;12.690;2022-09-29T15:58:50;10.50;99.90
16140;DHT22;8175;49.326;12.690;2022-09-29T16:01:16;10.40;99.90
16140;DHT22;8175;49.326;12.690;2022-09-29T16:03:44;10.30;99.90
16140;DHT22;8175;49.326;12.690;2022-09-29T16:06:30;10.20;99.90
16140;DHT22;8175;49.326;12.690;2022-09-29T16:09:05;10.10;99.90
16140;DHT22;8175;49.326;12.690;2022-09-29T16:11:38;10.00;99.90
16140;DHT22;8175;49.326;12.690;2022-09-29T16:14:13;9.90;99.90
16140;DHT22;8175;49.326;12.690;2022-09-29T16:16:45;9.90;99.90
16140;DHT22;8175;49.326;12.690;2022-09-29T16:19:18;9.80;99.90
16140;DHT22;8175;49.326;12.690;2022-09-29T16:21:50;9.70;99.90
16140;DHT22;8175;49.326;12.690;2022-09-29T16:24:19;9.70;99.90
16140;DHT22;8175;49.326;12.690;2022-09-29T16:26:47;9.60;99.90
16140;DHT22;8175;49.326;12.690;2022-09-29T16:31:51;9.60;99.90
16140;DHT22;8175;49.326;12.690;2022-09-29T16:37:03;9.50;99.90
16140;DHT22;8175;49.326;12.690;2022-09-29T16:39:33;9.50;99.90
16140;DHT22;8175;49.326;12.690;2022-09-29T16:42:04;9.40;99.90
16140;DHT22;8175;49.326;12.690;2022-09-29T16:44:39;9.30;99.90
16140;DHT22;8175;49.326;12.690;2022-09-29T16:47:20;9.20;99.90
16140;DHT22;8175;49.326;12.690;2022-09-29T16:49:58;9.20;99.90
16140;DHT22;8175;49.326;12.690;2022-09-29T16:52:50;9.10;99.90
16140;DHT22;8175;49.326;12.690;2022-09-29T16:58:08;9.00;99.90
16140;DHT22;8175;49.326;12.690;2022-09-29T17:00:37;8.90;99.90
16140;DHT22;8175;49.326;12.690;2022-09-29T17:03:02;8.90;99.90
16140;DHT22;8175;49.326;12.690;2022-09-29T17:05:34;8.80;99.90
16140;DHT22;8175;49.326;12.690;2022-09-29T17:08:01;8.70;99.90
16140;DHT22;8175;49.326;12.690;2022-09-29T17:10:27;8.70;99.90
16140;DHT22;8175;49.326;12.690;2022-09-29T17:12:53;8.60;99.90
16140;DHT22;8175;49.326;12.690;2022-09-29T17:15:19;8.60;99.90
16140;DHT22;8175;49.326;12.690;2022-09-29T17:17:49;8.50;99.90
16140;DHT22;8175;49.326;12.690;2022-09-29T17:20:21;8.50;99.90
16140;DHT22;8175;49.326;12.690;2022-09-29T17:22:54;8.50;99.90
16140;DHT22;8175;49.326;12.690;2022-09-29T17:25:19;8.40;99.90
16140;DHT22;8175;49.326;12.690;2022-09-29T17:27:45;8.50;99.90
16140;DHT22;8175;49.326;12.690;2022-09-29T17:30:30;8.40;99.90
16140;DHT22;8175;49.326;12.690;2022-09-29T17:32:57;8.40;99.90
16140;DHT22;8175;49.326;12.690;2022-09-29T17:35:28;8.30;99.90
16140;DHT22;8175;49.326;12.690;2022-09-29T17:37:54;8.30;99.90
16140;DHT22;8175;49.326;12.690;2022-09-29T17:40:37;8.30;99.90
16140;DHT22;8175;49.326;12.690;2022-09-29T17:43:07;8.20;99.90
16140;DHT22;8175;49.326;12.690;2022-09-29T17:45:33;8.20;99.90
16140;DHT22;8175;49.326;12.690;2022-09-29T17:48:00;8.20;99.90
16140;DHT22;8175;49.326;12.690;2022-09-29T17:50:33;8.20;99.90
16140;DHT22;8175;49.326;12.690;2022-09-29T17:53:02;8.20;99.90
16140;DHT22;8175;49.326;12.690;2022-09-29T17:55:32;8.20;99.90
16140;DHT22;8175;49.326;12.690;2022-09-29T17:57:59;8.10;99.90
16140;DHT22;8175;49.326;12.690;2022-09-29T18:00:34;8.10;99.90
16140;DHT22;8175;49.326;12.690;2022-09-29T18:03:05;8.10;99.90
16140;DHT22;8175;49.326;12.690;2022-09-29T18:05:31;8.10;99.90
16140;DHT22;8175;49.326;12.690;2022-09-29T18:07:58;8.10;99.90
16140;DHT22;8175;49.326;12.690;2022-09-29T18:13:03;8.20;99.90
16140;DHT22;8175;49.326;12.690;2022-09-29T18:15:29;8.20;99.90
16140;DHT22;8175;49.326;12.690;2022-09-29T18:17:59;8.20;99.90
16140;DHT22;8175;49.326;12.690;2022-09-29T18:20:28;8.20;99.90
16140;DHT22;8175;49.326;12.690;2022-09-29T18:22:55;8.20;99.90
16140;DHT22;8175;49.326;12.690;2022-09-29T18:25:28;8.20;99.90
16140;DHT22;8175;49.326;12.690;2022-09-29T18:27:54;8.20;99.90
16140;DHT22;8175;49.326;12.690;2022-09-29T18:32:55;8.20;99.90
16140;DHT22;8175;49.326;12.690;2022-09-29T18:35:26;8.20;99.90
16140;DHT22;8175;49.326;12.690;2022-09-29T18:37:51;8.20;99.90
16140;DHT22;8175;49.326;12.690;2022-09-29T18:40:18;8.10;99.90
16140;DHT22;8175;49.326;12.690;2022-09-29T18:42:46;8.10;99.90
16140;DHT22;8175;49.326;12.690;2022-09-29T18:45:15;8.20;99.90
16140;DHT22;8175;49.326;12.690;2022-09-29T18:47:51;8.20;99.90
16140;DHT22;8175;49.326;12.690;2022-09-29T18:50:18;8.20;99.90
16140;DHT22;8175;49.326;12.690;2022-09-29T18:52:48;8.10;99.90
16140;DHT22;8175;49.326;12.690;2022-09-29T18:55:14;8.20;99.90
16140;DHT22;8175;49.326;12.690;2022-09-29T18:57:45;8.10;99.90
16140;DHT22;8175;49.326;12.690;2022-09-29T19:00:19;8.10;99.90
16140;DHT22;8175;49.326;12.690;2022-09-29T19:02:46;8.10;99.90
16140;DHT22;8175;49.326;12.690;2022-09-29T19:05:17;8.10;99.90
16140;DHT22;8175;49.326;12.690;2022-09-29T19:07:46;8.10;99.90
16140;DHT22;8175;49.326;12.690;2022-09-29T19:10:13;8.10;99.90
16140;DHT22;8175;49.326;12.690;2022-09-29T19:12:40;8.10;99.90
16140;DHT22;8175;49.326;12.690;2022-09-29T19:15:13;8.10;99.90
16140;DHT22;8175;49.326;12.690;2022-09-29T19:17:39;8.10;99.90
16140;DHT22;8175;49.326;12.690;2022-09-29T19:20:05;8.10;99.90
16140;DHT22;8175;49.326;12.690;2022-09-29T19:22:31;8.10;99.90
16140;DHT22;8175;49.326;12.690;2022-09-29T19:25:02;8.10;99.90
16140;DHT22;8175;49.326;12.690;2022-09-29T19:27:27;8.10;99.90
16140;DHT22;8175;49.326;12.690;2022-09-29T19:29:54;8.10;99.90
16140;DHT22;8175;49.326;12.690;2022-09-29T19:32:20;8.10;99.90
16140;DHT22;8175;49.326;12.690;2022-09-29T19:34:46;8.20;99.90
16140;DHT22;8175;49.326;12.690;2022-09-29T19:37:11;8.20;99.90
16140;DHT22;8175;49.326;12.690;2022-09-29T19:39:37;8.20;99.90
16140;DHT22;8175;49.326;12.690;2022-09-29T19:42:03;8.20;99.90
16140;DHT22;8175;49.326;12.690;2022-09-29T19:44:28;8.20;99.90
16140;DHT22;8175;49.326;12.690;2022-09-29T19:46:56;8.30;99.90